FMMS

Details ICAO FMMS (SMS)
Name SAINTE MARIE
Region Comoros, Mayotte, Réunion and Madagascar
Timezone Indian/Antananarivo (UTC+3.0)
Plans Departing 8
Arriving 16
Stats Elevation 7 ft / 2 m (AMSL)
Location -17.094260° 49.816153°
Runways 1
Magnetic Variation 13.692° W
Sunrise 2017-12-15 02:02:59 UTC / 2017-12-15 05:02:59 Local
Sunset 2017-12-15 15:11:27 UTC / 2017-12-15 18:11:27 Local
Advertisement - Login to hide

Runways

ID Width Length Bearing (true) Bearing (mag) Surface Threshold Offset Overrun Length
01 98 ft / 30 m 3,468 ft / 1,057 m 353.60° 7.29° Asphalt 0 ft / 0 m 0 ft / 0 m
19 98 ft / 30 m 3,468 ft / 1,057 m 173.60° 187.29° Asphalt 290 ft / 88 m 100 ft / 30 m

Map

Weather


0- 5 10 15 20 25 30 35+ Temperature / ° C

Clouds and Precipitation
Forecast for 2017-12-15 06:00 UTC. Updated an hour ago

Ground ~20,000 ft ~40,000 ft Winds

METAR

FMMS 150600Z 24004KT 9999 VCSH BKN017 28/26 Q1014

TAF

Not found

Frequencies

Tower 120.30 MHz AFIS
Warning: Do not use this data for real-world aviation or navigation. No guarantee of current accuracy is given.